createdAt,value
2019-06-07T00:00:38.104Z,99.99
2019-06-07T00:01:27.672Z,99.99
2019-06-07T00:02:27.679Z,99.99
2019-06-07T00:03:30.253Z,99.99
2019-06-07T00:04:27.669Z,99.99
2019-06-07T00:05:27.672Z,99.99
2019-06-07T00:06:27.690Z,99.99
2019-06-07T00:07:27.665Z,99.99
2019-06-07T00:08:29.245Z,99.99
2019-06-07T00:09:27.664Z,99.99
2019-06-07T00:10:36.766Z,99.99
2019-06-07T00:11:27.661Z,99.99
2019-06-07T00:12:27.660Z,99.99
2019-06-07T00:13:27.658Z,99.99
2019-06-07T00:14:27.706Z,99.99
2019-06-07T00:15:29.041Z,99.99
2019-06-07T00:16:27.655Z,99.99
2019-06-07T00:17:27.672Z,99.99
2019-06-07T00:18:27.651Z,99.99
2019-06-07T00:19:27.648Z,99.99
2019-06-07T00:20:27.649Z,99.99
2019-06-07T00:22:12.800Z,99.99
2019-06-07T00:22:33.028Z,99.99
2019-06-07T00:23:27.646Z,99.99
2019-06-07T00:24:27.642Z,99.99
2019-06-07T00:25:27.641Z,99.99
2019-06-07T00:26:27.641Z,99.99
2019-06-07T00:27:27.639Z,99.99
2019-06-07T00:28:27.639Z,99.99
2019-06-07T00:29:27.651Z,99.99
2019-06-07T00:30:44.435Z,99.99
2019-06-07T00:31:27.641Z,99.99
2019-06-07T00:32:27.633Z,99.99
2019-06-07T00:33:27.628Z,99.99
2019-06-07T00:34:27.631Z,99.99
2019-06-07T00:35:27.628Z,99.99
2019-06-07T00:36:27.628Z,99.99
2019-06-07T00:37:27.623Z,99.99
2019-06-07T00:38:27.625Z,99.99
2019-06-07T00:39:27.621Z,99.99
2019-06-07T00:40:31.998Z,99.99
2019-06-07T00:41:27.615Z,99.99
2019-06-07T00:42:27.623Z,99.99
2019-06-07T00:43:28.562Z,99.99
2019-06-07T00:44:27.628Z,99.99
2019-06-07T00:45:27.612Z,99.99
2019-06-07T00:46:27.618Z,99.99
2019-06-07T00:47:27.610Z,99.99
2019-06-07T00:48:32.598Z,99.99
2019-06-07T00:49:40.634Z,99.99
2019-06-07T00:50:27.607Z,99.99
2019-06-07T00:51:27.604Z,99.99
2019-06-07T00:53:13.961Z,99.99
2019-06-07T00:53:32.079Z,99.99
2019-06-07T00:54:27.605Z,99.99
2019-06-07T00:55:27.828Z,99.99
2019-06-07T00:56:27.602Z,99.99
2019-06-07T00:57:27.634Z,99.99
2019-06-07T00:58:29.476Z,99.99
2019-06-07T00:59:29.535Z,99.99
2019-06-07T01:00:27.597Z,99.99
2019-06-07T01:01:27.595Z,99.99
2019-06-07T01:02:31.177Z,99.99
2019-06-07T01:03:27.592Z,99.99
2019-06-07T01:04:27.592Z,99.99
2019-06-07T01:05:31.363Z,99.99
2019-06-07T01:06:27.585Z,99.99
2019-06-07T01:07:27.623Z,99.99
2019-06-07T01:08:29.971Z,99.99
2019-06-07T01:09:27.581Z,99.99
2019-06-07T01:10:51.775Z,99.99
2019-06-07T01:11:27.577Z,99.99
2019-06-07T01:12:27.584Z,99.99
2019-06-07T01:13:27.569Z,99.99
2019-06-07T01:14:28.745Z,99.99
2019-06-07T01:15:29.227Z,99.99
2019-06-07T01:16:27.576Z,99.99
2019-06-07T01:17:41.002Z,99.99
2019-06-07T01:18:40.448Z,99.99
2019-06-07T01:19:28.008Z,99.99
2019-06-07T01:20:27.567Z,99.99
2019-06-07T01:21:29.705Z,99.99
2019-06-07T01:22:29.210Z,99.99
2019-06-07T01:24:04.965Z,99.99
2019-06-07T01:24:28.039Z,99.99
2019-06-07T01:25:29.058Z,99.99
2019-06-07T01:26:30.177Z,99.99
2019-06-07T01:27:28.718Z,99.99
2019-06-07T01:28:29.990Z,99.99
2019-06-07T01:29:30.914Z,99.99
2019-06-07T01:30:29.394Z,99.99
2019-06-07T01:31:30.988Z,99.99
2019-06-07T01:32:31.439Z,99.99
2019-06-07T01:33:49.495Z,99.99
2019-06-07T01:34:28.926Z,99.99
2019-06-07T01:35:29.577Z,99.99
2019-06-07T01:36:29.572Z,99.99
2019-06-07T01:37:29.703Z,99.99
2019-06-07T01:38:29.799Z,99.99
2019-06-07T01:39:29.851Z,99.99
2019-06-07T01:40:31.935Z,99.99
2019-06-07T01:41:30.140Z,99.99
2019-06-07T01:42:29.467Z,99.99
2019-06-07T01:43:30.473Z,99.99
2019-06-07T01:44:28.613Z,99.99
2019-06-07T01:45:30.903Z,99.99
2019-06-07T01:46:28.714Z,99.99
2019-06-07T01:47:31.142Z,99.99
2019-06-07T01:48:45.004Z,99.99
2019-06-07T01:49:29.500Z,99.99
2019-06-07T01:50:29.610Z,99.99
2019-06-07T01:51:30.470Z,99.99
2019-06-07T01:52:29.291Z,99.99
2019-06-07T01:53:29.157Z,99.99
2019-06-07T01:54:54.335Z,99.99
2019-06-07T01:55:32.231Z,99.99
2019-06-07T01:56:29.654Z,99.99
2019-06-07T01:57:43.067Z,99.99
2019-06-07T01:58:29.218Z,99.99
2019-06-07T01:59:28.602Z,99.99
2019-06-07T02:00:31.915Z,99.99
2019-06-07T02:01:34.635Z,99.99
2019-06-07T02:02:30.064Z,99.99
2019-06-07T02:03:32.191Z,99.99
2019-06-07T02:04:32.438Z,99.99
2019-06-07T02:05:31.031Z,99.99
2019-06-07T02:06:31.693Z,99.99
2019-06-07T02:07:32.452Z,99.99
2019-06-07T02:08:34.008Z,99.99
2019-06-07T02:09:29.853Z,99.99
2019-06-07T02:10:30.305Z,99.99
2019-06-07T02:11:29.409Z,99.99
2019-06-07T02:12:37.696Z,99.99
2019-06-07T02:13:29.339Z,99.99
2019-06-07T02:14:32.456Z,99.99
2019-06-07T02:15:31.081Z,99.99
2019-06-07T02:16:29.503Z,99.99
2019-06-07T02:17:30.198Z,99.99
2019-06-07T02:18:29.142Z,99.99
2019-06-07T02:19:31.168Z,99.99
2019-06-07T02:20:31.894Z,99.99
2019-06-07T02:21:28.775Z,99.99
2019-06-07T02:22:30.364Z,99.99
2019-06-07T02:23:30.925Z,99.99
2019-06-07T02:24:29.606Z,99.99
2019-06-07T02:25:41.909Z,99.99
2019-06-07T02:26:30.022Z,99.99
2019-06-07T02:27:27.589Z,99.99
2019-06-07T02:28:42.262Z,99.99
2019-06-07T02:29:30.233Z,99.99
2019-06-07T02:30:57.988Z,99.99
2019-06-07T02:31:31.469Z,99.99
2019-06-07T02:32:32.001Z,99.99
2019-06-07T02:33:31.150Z,99.99
2019-06-07T02:34:31.948Z,99.99
2019-06-07T02:35:34.774Z,99.99
2019-06-07T02:36:33.227Z,99.99
2019-06-07T02:37:31.575Z,99.99
2019-06-07T02:38:31.103Z,99.99
2019-06-07T02:39:28.781Z,99.99
2019-06-07T02:40:32.357Z,99.99
2019-06-07T02:41:35.325Z,99.99
2019-06-07T02:42:30.732Z,99.99
2019-06-07T02:43:30.768Z,99.99
2019-06-07T02:44:30.611Z,99.99
2019-06-07T02:45:35.555Z,99.99
2019-06-07T02:46:38.033Z,99.99
2019-06-07T02:47:28.723Z,99.99
2019-06-07T02:48:32.524Z,99.99
2019-06-07T02:49:31.373Z,99.99
2019-06-07T02:50:29.189Z,99.99
2019-06-07T02:51:34.916Z,99.99
2019-06-07T02:52:33.159Z,99.99
2019-06-07T02:53:29.961Z,99.99
2019-06-07T02:54:29.914Z,99.99
2019-06-07T02:55:29.616Z,99.99
2019-06-07T02:56:40.420Z,99.99
2019-06-07T02:57:29.323Z,99.99
2019-06-07T02:58:32.434Z,99.99
2019-06-07T02:59:57.482Z,99.99
2019-06-07T03:00:51.423Z,99.99
2019-06-07T03:01:28.637Z,99.99
2019-06-07T03:02:31.637Z,99.99
2019-06-07T03:03:29.957Z,99.99
2019-06-07T03:04:29.553Z,99.99
2019-06-07T03:05:29.488Z,99.99
2019-06-07T03:06:31.796Z,99.99
2019-06-07T03:07:28.353Z,99.99
2019-06-07T03:08:28.270Z,99.99
2019-06-07T03:09:30.861Z,99.99
2019-06-07T03:10:28.602Z,99.99
2019-06-07T03:11:28.227Z,99.99
2019-06-07T03:12:29.621Z,99.99
2019-06-07T03:13:28.900Z,99.99
2019-06-07T03:14:28.665Z,99.99
2019-06-07T03:15:35.493Z,99.99
2019-06-07T03:16:28.691Z,99.99
2019-06-07T03:17:29.649Z,99.99
2019-06-07T03:18:29.075Z,99.99
2019-06-07T03:19:28.751Z,99.99
2019-06-07T03:20:28.100Z,99.99
2019-06-07T03:21:28.126Z,99.99
2019-06-07T03:22:29.156Z,99.99
2019-06-07T03:23:28.849Z,99.99
2019-06-07T03:24:30.099Z,99.99
2019-06-07T03:25:28.210Z,99.99
2019-06-07T03:26:27.792Z,99.99
2019-06-07T03:27:36.190Z,99.99
2019-06-07T03:28:27.652Z,99.99
2019-06-07T03:29:28.892Z,99.99
2019-06-07T03:30:58.031Z,99.99
2019-06-07T03:31:31.314Z,99.99
2019-06-07T03:32:32.029Z,99.99
2019-06-07T03:33:29.237Z,99.99
2019-06-07T03:34:29.726Z,99.99
2019-06-07T03:35:29.783Z,99.99
2019-06-07T03:36:27.566Z,99.99
2019-06-07T03:37:27.965Z,99.99
2019-06-07T03:38:28.260Z,99.99
2019-06-07T03:39:28.414Z,99.99
2019-06-07T03:40:27.322Z,99.99
2019-06-07T03:41:29.286Z,99.99
2019-06-07T03:42:27.316Z,99.99
2019-06-07T03:43:27.449Z,99.99
2019-06-07T03:44:28.623Z,99.99
2019-06-07T03:45:28.615Z,99.99
2019-06-07T03:46:27.397Z,99.99
2019-06-07T03:47:30.598Z,99.99
2019-06-07T03:48:28.848Z,99.99
2019-06-07T03:49:28.044Z,99.99
2019-06-07T03:50:30.498Z,99.99
2019-06-07T03:51:28.857Z,99.99
2019-06-07T03:52:27.540Z,99.99
2019-06-07T03:53:29.659Z,99.99
2019-06-07T03:54:27.295Z,99.99
2019-06-07T03:55:27.800Z,99.99
2019-06-07T03:56:28.431Z,99.99
2019-06-07T03:57:28.616Z,99.99
2019-06-07T03:58:32.604Z,99.99
2019-06-07T03:59:28.434Z,99.99
2019-06-07T04:00:29.581Z,99.99
2019-06-07T04:01:28.604Z,99.99
2019-06-07T04:02:27.892Z,99.99
2019-06-07T04:03:36.671Z,99.99
2019-06-07T04:04:27.382Z,99.99
2019-06-07T04:05:28.751Z,99.99
2019-06-07T04:06:30.978Z,99.99
2019-06-07T04:07:28.996Z,99.99
2019-06-07T04:08:28.212Z,99.99
2019-06-07T04:09:28.775Z,99.99
2019-06-07T04:10:49.547Z,99.99
2019-06-07T04:11:27.819Z,99.99
2019-06-07T04:12:28.537Z,99.99
2019-06-07T04:13:29.012Z,99.99
2019-06-07T04:14:29.385Z,99.99
2019-06-07T04:15:28.110Z,99.99
2019-06-07T04:16:28.985Z,99.99
2019-06-07T04:17:30.710Z,99.99
2019-06-07T04:18:28.135Z,99.99
2019-06-07T04:19:28.877Z,99.99
2019-06-07T04:20:29.296Z,99.99
2019-06-07T04:21:29.726Z,99.99
2019-06-07T04:22:28.814Z,99.99
2019-06-07T04:23:30.972Z,99.99
2019-06-07T04:24:28.611Z,99.99
2019-06-07T04:25:28.660Z,99.99
2019-06-07T04:26:30.943Z,99.99
2019-06-07T04:27:28.198Z,99.99
2019-06-07T04:29:15.621Z,99.99
2019-06-07T04:29:35.607Z,99.99
2019-06-07T04:30:29.299Z,99.99
2019-06-07T04:31:28.271Z,99.99
2019-06-07T04:32:29.744Z,99.99
2019-06-07T04:33:28.478Z,99.99
2019-06-07T04:34:29.103Z,99.99
2019-06-07T04:35:30.978Z,99.99
2019-06-07T04:36:42.772Z,99.99
2019-06-07T04:37:28.256Z,99.99
2019-06-07T04:38:27.240Z,99.99
2019-06-07T04:39:27.237Z,99.99
2019-06-07T04:40:27.899Z,99.99
2019-06-07T04:41:27.233Z,99.99
2019-06-07T04:42:27.234Z,99.99
2019-06-07T04:43:27.234Z,99.99
2019-06-07T04:44:27.230Z,99.99
2019-06-07T04:45:39.726Z,99.99
2019-06-07T04:46:27.228Z,99.99
2019-06-07T04:47:27.262Z,99.99
2019-06-07T04:48:27.225Z,99.99
2019-06-07T04:49:27.228Z,99.99
2019-06-07T04:50:27.227Z,99.99
2019-06-07T04:51:27.227Z,99.99
2019-06-07T04:52:27.224Z,99.45
2019-06-07T04:53:27.223Z,98.49
2019-06-07T04:54:27.226Z,97.33
2019-06-07T04:55:27.223Z,96.03
2019-06-07T04:56:27.219Z,93.85
2019-06-07T04:57:27.220Z,91.33
2019-06-07T04:58:27.226Z,91.05
2019-06-07T05:00:00.872Z,91.19
2019-06-07T05:00:51.846Z,92.45
2019-06-07T05:01:29.633Z,92.65
2019-06-07T05:02:27.221Z,91.91
2019-06-07T05:03:27.226Z,90.99
2019-06-07T05:04:27.218Z,89.25
2019-06-07T05:05:27.222Z,88.29
2019-06-07T05:06:27.222Z,89.45
2019-06-07T05:07:27.225Z,88.43
2019-06-07T05:08:29.841Z,88.53
2019-06-07T05:09:27.220Z,88.73
2019-06-07T05:10:27.220Z,91.25
2019-06-07T05:11:27.221Z,89.84
2019-06-07T05:12:27.222Z,89.55
2019-06-07T05:13:27.221Z,88.82
2019-06-07T05:14:28.310Z,88.20
2019-06-07T05:15:27.223Z,88.97
2019-06-07T05:16:27.223Z,89.07
2019-06-07T05:17:28.908Z,88.73
2019-06-07T05:18:27.224Z,87.76
2019-06-07T05:19:27.225Z,87.66
2019-06-07T05:20:27.226Z,86.93
2019-06-07T05:21:48.160Z,85.82
2019-06-07T05:22:27.228Z,85.03
2019-06-07T05:24:04.827Z,83.91
2019-06-07T05:24:27.232Z,82.69
2019-06-07T05:25:27.227Z,81.76
2019-06-07T05:26:27.231Z,80.54
2019-06-07T05:27:27.230Z,79.61
2019-06-07T05:28:27.234Z,78.38
2019-06-07T05:29:27.233Z,76.17
2019-06-07T05:30:59.853Z,75.59
2019-06-07T05:31:27.234Z,75.78
2019-06-07T05:32:27.233Z,75.49
2019-06-07T05:33:27.266Z,75.49
2019-06-07T05:34:27.239Z,75.55
2019-06-07T05:35:27.240Z,75.36
2019-06-07T05:36:27.245Z,76.42
2019-06-07T05:37:27.245Z,75.07
2019-06-07T05:38:27.250Z,74.71
2019-06-07T05:39:27.249Z,73.94
2019-06-07T05:40:27.246Z,74.17
2019-06-07T05:41:27.248Z,74.91
2019-06-07T05:42:27.573Z,73.97
2019-06-07T05:43:27.291Z,73.33
2019-06-07T05:44:27.252Z,73.04
2019-06-07T05:45:27.258Z,72.55
2019-06-07T05:46:27.264Z,72.55
2019-06-07T05:47:27.264Z,72.30
2019-06-07T05:48:27.262Z,70.75
2019-06-07T05:49:27.271Z,71.00
2019-06-07T05:50:55.394Z,70.94
2019-06-07T05:51:27.270Z,70.87
2019-06-07T05:52:27.273Z,69.81
2019-06-07T05:53:27.274Z,70.26
2019-06-07T05:54:27.279Z,69.96
2019-06-07T05:55:27.276Z,69.96
2019-06-07T05:56:27.280Z,69.74
2019-06-07T05:57:27.282Z,70.36
2019-06-07T05:58:27.290Z,69.58
2019-06-07T05:59:27.289Z,69.19
2019-06-07T06:00:27.562Z,69.22
2019-06-07T06:01:42.895Z,68.77
2019-06-07T06:02:27.298Z,68.32
2019-06-07T06:03:27.301Z,67.70
2019-06-07T06:04:27.423Z,67.63
2019-06-07T06:05:34.577Z,67.47
2019-06-07T06:06:27.308Z,66.60
2019-06-07T06:07:27.314Z,66.50
2019-06-07T06:08:27.311Z,67.41
2019-06-07T06:09:27.318Z,66.76
2019-06-07T06:10:27.322Z,65.82
2019-06-07T06:11:43.000Z,65.72
2019-06-07T06:12:35.488Z,65.26
2019-06-07T06:13:27.329Z,65.17
2019-06-07T06:14:27.337Z,65.17
2019-06-07T06:15:42.126Z,63.70
2019-06-07T06:16:27.344Z,64.90
2019-06-07T06:17:27.345Z,63.73
2019-06-07T06:18:27.350Z,62.89
2019-06-07T06:19:27.354Z,61.79
2019-06-07T06:20:32.886Z,61.46
2019-06-07T06:21:27.488Z,62.53
2019-06-07T06:22:27.367Z,63.51
2019-06-07T06:23:27.372Z,63.60
2019-06-07T06:24:27.429Z,62.85
2019-06-07T06:25:32.991Z,62.85
2019-06-07T06:26:27.383Z,61.56
2019-06-07T06:28:03.472Z,62.90
2019-06-07T06:28:27.515Z,67.41
2019-06-07T06:29:27.551Z,68.18
2019-06-07T06:30:27.405Z,66.99
2019-06-07T06:31:27.412Z,65.92
2019-06-07T06:32:41.779Z,65.01
2019-06-07T06:33:34.215Z,63.60
2019-06-07T06:34:27.421Z,62.56
2019-06-07T06:35:27.430Z,62.30
2019-06-07T06:36:27.430Z,60.60
2019-06-07T06:37:27.438Z,59.43
2019-06-07T06:38:27.444Z,58.91
2019-06-07T06:39:27.448Z,59.25
2019-06-07T06:40:27.452Z,59.91
2019-06-07T06:41:27.458Z,61.99
2019-06-07T06:42:27.461Z,62.70
2019-06-07T06:43:27.469Z,62.96
2019-06-07T06:44:27.476Z,62.41
2019-06-07T06:45:27.479Z,63.21
2019-06-07T06:46:38.510Z,62.79
2019-06-07T06:47:27.493Z,61.43
2019-06-07T06:48:27.496Z,60.80
2019-06-07T06:49:27.512Z,59.46
2019-06-07T06:50:27.528Z,56.76
2019-06-07T06:51:27.512Z,57.75
2019-06-07T06:52:27.551Z,60.33
2019-06-07T06:53:27.526Z,61.66
2019-06-07T06:54:40.051Z,61.14
2019-06-07T06:55:27.536Z,59.38
2019-06-07T06:56:27.558Z,58.83
2019-06-07T06:57:27.813Z,60.26
2019-06-07T06:58:27.555Z,60.13
2019-06-07T06:59:38.519Z,59.99
2019-06-07T07:00:43.101Z,58.62
2019-06-07T07:01:27.571Z,57.57
2019-06-07T07:02:27.582Z,56.84
2019-06-07T07:04:01.294Z,57.45
2019-06-07T07:04:27.589Z,56.89
2019-06-07T07:05:27.601Z,56.13
2019-06-07T07:06:27.604Z,55.28
2019-06-07T07:07:27.637Z,55.28
2019-06-07T07:08:27.614Z,57.17
2019-06-07T07:09:27.625Z,57.66
2019-06-07T07:10:27.625Z,56.41
2019-06-07T07:11:27.635Z,56.15
2019-06-07T07:12:27.642Z,55.19
2019-06-07T07:13:27.651Z,52.45
2019-06-07T07:14:27.754Z,52.84
2019-06-07T07:15:27.665Z,52.81
2019-06-07T07:16:27.673Z,52.69
2019-06-07T07:17:46.888Z,53.16
2019-06-07T07:18:27.682Z,53.42
2019-06-07T07:19:27.688Z,52.34
2019-06-07T07:20:27.693Z,51.25
2019-06-07T07:21:27.699Z,53.20
2019-06-07T07:22:27.709Z,54.28
2019-06-07T07:23:27.714Z,52.93
2019-06-07T07:24:27.720Z,53.35
2019-06-07T07:25:27.726Z,52.59
2019-06-07T07:26:27.733Z,53.40
2019-06-07T07:27:28.054Z,52.25
2019-06-07T07:28:27.758Z,50.71
2019-06-07T07:29:27.760Z,50.20
2019-06-07T07:30:36.713Z,51.03
2019-06-07T07:31:27.765Z,51.04
2019-06-07T07:32:27.775Z,54.53
2019-06-07T07:34:20.099Z,56.90
2019-06-07T07:34:35.336Z,56.54
2019-06-07T07:35:27.795Z,56.15
2019-06-07T07:36:38.919Z,53.93
2019-06-07T07:37:27.826Z,53.93
2019-06-07T07:38:27.816Z,54.57
2019-06-07T07:39:27.823Z,54.82
2019-06-07T07:40:57.284Z,53.18
2019-06-07T07:41:27.836Z,52.35
2019-06-07T07:42:27.849Z,50.42
2019-06-07T07:43:27.870Z,50.51
2019-06-07T07:44:27.857Z,50.61
2019-06-07T07:45:27.893Z,50.83
2019-06-07T07:46:29.622Z,48.38
2019-06-07T07:47:27.882Z,48.57
2019-06-07T07:48:27.958Z,49.08
2019-06-07T07:49:27.897Z,48.18
2019-06-07T07:50:28.075Z,49.07
2019-06-07T07:51:27.918Z,49.19
2019-06-07T07:52:27.921Z,47.22
2019-06-07T07:53:47.962Z,47.05
2019-06-07T07:54:27.935Z,46.58
2019-06-07T07:55:27.977Z,46.50
2019-06-07T07:56:27.951Z,44.93
2019-06-07T07:57:27.963Z,45.64
2019-06-07T07:58:27.968Z,44.48
2019-06-07T07:59:41.823Z,44.58
2019-06-07T08:01:27.993Z,42.71
2019-06-07T08:02:28.005Z,42.44
2019-06-07T08:03:28.013Z,43.60
2019-06-07T08:05:12.210Z,42.96
2019-06-07T08:05:41.916Z,43.98
2019-06-07T08:06:28.040Z,45.18
2019-06-07T08:07:28.284Z,44.27
2019-06-07T08:08:28.058Z,45.18
2019-06-07T08:09:28.063Z,45.19
2019-06-07T08:10:28.079Z,46.25
2019-06-07T08:11:28.084Z,48.30
2019-06-07T08:12:28.095Z,48.45
2019-06-07T08:13:28.148Z,47.39
2019-06-07T08:14:28.111Z,45.28
2019-06-07T08:15:28.120Z,44.69
2019-06-07T08:16:28.133Z,44.27
2019-06-07T08:17:28.144Z,44.37
2019-06-07T08:18:28.153Z,45.18
2019-06-07T08:19:28.155Z,44.89
2019-06-07T08:20:28.168Z,44.49
2019-06-07T08:21:28.176Z,44.30
2019-06-07T08:22:28.187Z,44.12
2019-06-07T08:23:28.192Z,44.55
2019-06-07T08:24:28.200Z,46.37
2019-06-07T08:25:28.210Z,46.44
2019-06-07T08:26:28.262Z,46.80
2019-06-07T08:27:28.230Z,48.58
2019-06-07T08:28:28.240Z,49.66
2019-06-07T08:29:43.774Z,51.61
2019-06-07T08:30:50.097Z,51.73
2019-06-07T08:31:28.267Z,52.51
2019-06-07T08:32:28.275Z,51.76
2019-06-07T08:33:28.284Z,51.00
2019-06-07T08:34:28.295Z,50.83
2019-06-07T08:36:41.149Z,49.32
2019-06-07T08:38:13.313Z,48.51
2019-06-07T08:38:46.589Z,48.90
2019-06-07T08:39:28.339Z,48.34
2019-06-07T08:40:28.367Z,48.16
2019-06-07T08:41:28.361Z,47.17
2019-06-07T08:42:37.077Z,47.24
2019-06-07T08:43:28.400Z,48.78
2019-06-07T08:44:28.386Z,49.73
2019-06-07T08:45:28.394Z,49.39
2019-06-07T08:46:28.404Z,47.95
2019-06-07T08:47:28.413Z,48.14
2019-06-07T08:48:30.228Z,48.34
2019-06-07T08:49:28.430Z,48.34
2019-06-07T08:50:28.462Z,48.97
2019-06-07T08:51:28.447Z,48.58
2019-06-07T08:52:28.504Z,47.50
2019-06-07T08:53:28.463Z,48.87
2019-06-07T08:54:28.475Z,46.33
2019-06-07T08:55:28.503Z,47.26
2019-06-07T08:56:28.493Z,46.18
2019-06-07T08:57:28.500Z,47.31
2019-06-07T08:58:28.523Z,47.27
2019-06-07T08:59:28.521Z,48.95
2019-06-07T09:00:45.385Z,49.95
2019-06-07T09:01:28.536Z,48.39
2019-06-07T09:02:28.552Z,49.78
2019-06-07T09:03:28.582Z,48.90
2019-06-07T09:04:28.560Z,48.32
2019-06-07T09:05:28.580Z,50.31
2019-06-07T09:07:01.977Z,50.02
2019-06-07T09:07:28.582Z,50.68
2019-06-07T09:08:30.692Z,51.70
2019-06-07T09:09:28.596Z,53.45
2019-06-07T09:10:28.601Z,55.76
2019-06-07T09:11:28.611Z,56.40
2019-06-07T09:12:28.616Z,58.06
2019-06-07T09:13:28.622Z,60.62
2019-06-07T09:14:28.626Z,62.07
2019-06-07T09:15:28.629Z,64.27
2019-06-07T09:16:28.637Z,65.63
2019-06-07T09:17:28.640Z,66.88
2019-06-07T09:18:42.053Z,66.98
2019-06-07T09:19:28.651Z,66.78
2019-06-07T09:20:37.111Z,67.11
2019-06-07T09:21:28.661Z,65.66
2019-06-07T09:22:28.720Z,63.56
2019-06-07T09:23:28.679Z,65.47
2019-06-07T09:24:28.674Z,67.88
2019-06-07T09:25:29.075Z,68.79
2019-06-07T09:26:28.731Z,68.79
2019-06-07T09:27:28.985Z,68.66
2019-06-07T09:28:28.693Z,68.04
2019-06-07T09:29:28.702Z,69.78
2019-06-07T09:30:28.699Z,71.33
2019-06-07T09:31:51.050Z,70.94
2019-06-07T09:32:28.709Z,71.52
2019-06-07T09:33:28.714Z,70.46
2019-06-07T09:34:28.853Z,68.40
2019-06-07T09:35:28.718Z,69.46
2019-06-07T09:36:28.725Z,71.88
2019-06-07T09:38:28.731Z,69.84
2019-06-07T09:39:28.735Z,73.07
2019-06-07T09:40:28.740Z,72.00
2019-06-07T09:41:46.914Z,70.59
2019-06-07T09:42:28.748Z,70.10
2019-06-07T09:44:00.693Z,69.56
2019-06-07T09:44:28.753Z,71.11
2019-06-07T09:45:28.810Z,71.88
2019-06-07T09:46:28.759Z,71.84
2019-06-07T09:47:32.244Z,71.69
2019-06-07T09:49:32.718Z,69.46
2019-06-07T09:50:28.778Z,70.04
2019-06-07T09:51:28.781Z,69.85
2019-06-07T09:52:28.782Z,70.18
2019-06-07T09:53:28.786Z,68.43
2019-06-07T09:55:03.879Z,70.18
2019-06-07T09:55:28.796Z,70.56
2019-06-07T09:56:28.798Z,68.95
2019-06-07T09:57:28.801Z,67.50
2019-06-07T09:58:51.217Z,65.66
2019-06-07T09:59:28.808Z,65.27
2019-06-07T10:00:44.056Z,68.30
2019-06-07T10:01:28.813Z,70.40
2019-06-07T10:02:28.879Z,68.70
2019-06-07T10:03:28.824Z,65.47
2019-06-07T10:04:31.457Z,66.20
2019-06-07T10:05:28.830Z,66.56
2019-06-07T10:06:28.834Z,68.63
2019-06-07T10:07:32.051Z,66.95
2019-06-07T10:11:28.860Z,69.40
2019-06-07T10:12:28.862Z,69.53
2019-06-07T10:13:28.874Z,69.82
2019-06-07T10:14:28.866Z,68.66
2019-06-07T10:15:28.868Z,67.33
2019-06-07T10:16:28.875Z,66.33
2019-06-07T10:17:28.874Z,67.40
2019-06-07T10:18:28.878Z,69.33
2019-06-07T10:19:28.880Z,70.30
2019-06-07T10:20:28.886Z,69.62
2019-06-07T10:21:28.888Z,71.01
2019-06-07T10:22:28.892Z,68.40
2019-06-07T10:23:28.902Z,69.37
2019-06-07T10:24:28.901Z,70.92
2019-06-07T10:25:28.915Z,70.92
2019-06-07T10:26:28.906Z,68.69
2019-06-07T10:27:28.925Z,71.88
2019-06-07T10:28:28.913Z,71.40
2019-06-07T10:29:28.918Z,69.95
2019-06-07T10:30:28.923Z,69.01
2019-06-07T10:31:28.926Z,69.31
2019-06-07T10:32:28.926Z,70.89
2019-06-07T10:33:29.043Z,70.21
2019-06-07T10:34:28.942Z,68.95
2019-06-07T10:35:28.939Z,70.31
2019-06-07T10:36:28.945Z,69.34
2019-06-07T10:37:28.948Z,70.60
2019-06-07T10:38:28.948Z,69.73
2019-06-07T10:39:28.969Z,68.73
2019-06-07T10:40:28.953Z,68.59
2019-06-07T10:41:28.958Z,69.75
2019-06-07T10:42:28.965Z,71.20
2019-06-07T10:43:28.965Z,70.72
2019-06-07T10:44:28.971Z,70.72
2019-06-07T10:45:28.976Z,69.43
2019-06-07T10:46:28.977Z,69.53
2019-06-07T10:47:28.985Z,70.26
2019-06-07T10:48:28.987Z,70.56
2019-06-07T10:49:28.989Z,70.42
2019-06-07T10:50:29.015Z,70.81
2019-06-07T10:51:28.992Z,71.00
2019-06-07T10:52:28.997Z,73.32
2019-06-07T10:53:29.000Z,73.52
2019-06-07T10:54:30.810Z,74.00
2019-06-07T10:55:29.008Z,71.20
2019-06-07T10:56:29.018Z,72.06
2019-06-07T10:57:29.013Z,72.84
2019-06-07T10:58:29.014Z,73.26
2019-06-07T10:59:29.020Z,74.04
2019-06-07T11:00:29.019Z,71.91
2019-06-07T11:01:29.025Z,71.42
2019-06-07T11:02:29.026Z,71.14
2019-06-07T11:03:29.032Z,71.30
2019-06-07T11:04:29.042Z,73.42
2019-06-07T11:05:29.038Z,73.65
2019-06-07T11:06:29.041Z,74.96
2019-06-07T11:07:29.046Z,71.48
2019-06-07T11:08:29.045Z,71.64
2019-06-07T11:09:29.048Z,73.38
2019-06-07T11:10:29.054Z,72.22
2019-06-07T11:11:29.056Z,73.28
2019-06-07T11:12:29.061Z,74.44
2019-06-07T11:13:29.063Z,73.67
2019-06-07T11:14:29.064Z,74.64
2019-06-07T11:15:29.159Z,73.58
2019-06-07T11:16:29.077Z,73.58
2019-06-07T11:17:29.073Z,75.41
2019-06-07T11:18:29.073Z,75.99
2019-06-07T11:19:29.081Z,75.51
2019-06-07T11:20:29.081Z,75.31
2019-06-07T11:21:29.085Z,75.64
2019-06-07T11:22:29.088Z,73.52
2019-06-07T11:23:29.094Z,72.55
2019-06-07T11:24:29.092Z,73.22
2019-06-07T11:25:29.097Z,73.90
2019-06-07T11:26:29.110Z,74.29
2019-06-07T11:27:29.103Z,74.19
2019-06-07T11:28:29.107Z,74.19
2019-06-07T11:29:29.107Z,74.48
2019-06-07T11:30:29.114Z,74.38
2019-06-07T11:31:29.113Z,74.68
2019-06-07T11:32:29.141Z,74.19
2019-06-07T11:33:29.116Z,73.84
2019-06-07T11:34:29.122Z,72.97
2019-06-07T11:35:29.123Z,74.90
2019-06-07T11:36:29.126Z,74.85
2019-06-07T11:37:29.131Z,73.30
2019-06-07T11:38:29.130Z,72.04
2019-06-07T11:39:29.142Z,71.84
2019-06-07T11:40:35.444Z,71.81
2019-06-07T11:41:29.141Z,72.49
2019-06-07T11:42:29.143Z,72.04
2019-06-07T11:43:29.154Z,70.68
2019-06-07T11:44:29.152Z,71.66
2019-06-07T11:45:29.148Z,71.75
2019-06-07T11:46:29.154Z,72.14
2019-06-07T11:47:29.163Z,73.24
2019-06-07T11:48:29.159Z,73.53
2019-06-07T11:49:29.157Z,71.40
2019-06-07T11:50:29.175Z,72.79
2019-06-07T11:51:29.169Z,72.79
2019-06-07T11:52:29.174Z,71.53
2019-06-07T11:53:29.173Z,71.72
2019-06-07T11:54:29.181Z,72.79
2019-06-07T11:55:29.180Z,71.53
2019-06-07T11:56:29.187Z,70.95
2019-06-07T11:57:29.208Z,71.62
2019-06-07T11:58:29.217Z,72.30
2019-06-07T11:59:29.193Z,71.62
2019-06-07T12:00:29.196Z,69.17
2019-06-07T12:01:29.200Z,70.14
2019-06-07T12:02:29.209Z,70.78
2019-06-07T12:03:29.206Z,72.04
2019-06-07T12:04:34.761Z,71.66
2019-06-07T12:05:29.211Z,72.14
2019-06-07T12:06:29.214Z,73.20
2019-06-07T12:07:29.215Z,72.24
2019-06-07T12:08:29.219Z,71.88
2019-06-07T12:09:29.225Z,72.27
2019-06-07T12:10:41.755Z,72.36
2019-06-07T12:11:29.247Z,71.98
2019-06-07T12:12:29.231Z,71.50
2019-06-07T12:13:29.237Z,70.92
2019-06-07T12:14:29.238Z,72.36
2019-06-07T12:15:29.242Z,73.72
2019-06-07T12:16:29.242Z,73.63
2019-06-07T12:17:29.244Z,71.59
2019-06-07T12:18:29.254Z,72.75
2019-06-07T12:19:29.254Z,70.53
2019-06-07T12:20:29.255Z,71.88
2019-06-07T12:21:29.258Z,72.85
2019-06-07T12:22:29.260Z,71.30
2019-06-07T12:23:29.270Z,70.95
2019-06-07T12:24:29.269Z,72.02
2019-06-07T12:25:29.272Z,71.14
2019-06-07T12:26:29.273Z,71.82
2019-06-07T12:27:29.278Z,71.88
2019-06-07T12:28:29.278Z,70.53
2019-06-07T12:29:29.281Z,72.11
2019-06-07T12:30:29.286Z,70.56
2019-06-07T12:31:29.288Z,71.14
2019-06-07T12:32:29.290Z,71.14
2019-06-07T12:33:29.297Z,70.34
2019-06-07T12:34:29.294Z,72.02
2019-06-07T12:35:29.301Z,72.98
2019-06-07T12:36:29.315Z,73.41
2019-06-07T12:37:43.198Z,71.24
2019-06-07T12:38:29.307Z,72.15
2019-06-07T12:39:29.309Z,73.31
2019-06-07T12:40:32.224Z,71.28
2019-06-07T12:41:29.321Z,70.31
2019-06-07T12:42:29.320Z,71.47
2019-06-07T12:43:29.326Z,70.83
2019-06-07T12:44:29.367Z,71.12
2019-06-07T12:45:45.684Z,70.73
2019-06-07T12:46:29.332Z,70.54
2019-06-07T12:47:29.335Z,69.08
2019-06-07T12:48:29.341Z,70.86
2019-06-07T12:49:29.342Z,70.57
2019-06-07T12:50:42.663Z,69.57
2019-06-07T12:51:29.356Z,71.22
2019-06-07T12:52:29.353Z,70.54
2019-06-07T12:53:29.366Z,70.73
2019-06-07T12:54:29.371Z,70.83
2019-06-07T12:55:29.361Z,70.21
2019-06-07T12:56:29.363Z,69.59
2019-06-07T12:57:29.369Z,71.11
2019-06-07T12:58:34.914Z,72.56
2019-06-07T12:59:29.375Z,72.21